sensor_id;sensor_type;location;lat;lon;timestamp;temperature;humidity
5492;DHT22;2768;53.540;10.224;2023-06-19T00:05:32;22.20;1.00
5492;DHT22;2768;53.540;10.224;2023-06-19T00:11:26;22.10;1.00
5492;DHT22;2768;53.540;10.224;2023-06-19T00:17:20;22.00;1.00
5492;DHT22;2768;53.540;10.224;2023-06-19T00:23:13;22.00;1.00
5492;DHT22;2768;53.540;10.224;2023-06-19T00:29:10;22.10;1.00
5492;DHT22;2768;53.540;10.224;2023-06-19T00:35:04;22.00;1.00
5492;DHT22;2768;53.540;10.224;2023-06-19T00:40:58;22.00;1.00
5492;DHT22;2768;53.540;10.224;2023-06-19T00:46:58;22.00;1.00
5492;DHT22;2768;53.540;10.224;2023-06-19T00:52:52;21.90;1.00
5492;DHT22;2768;53.540;10.224;2023-06-19T00:58:45;21.80;1.00
5492;DHT22;2768;53.540;10.224;2023-06-19T01:04:40;21.90;1.00
5492;DHT22;2768;53.540;10.224;2023-06-19T01:10:59;21.90;1.00
5492;DHT22;2768;53.540;10.224;2023-06-19T01:17:03;21.80;1.00
5492;DHT22;2768;53.540;10.224;2023-06-19T01:23:06;21.90;1.00
5492;DHT22;2768;53.540;10.224;2023-06-19T01:28:59;21.80;1.00
5492;DHT22;2768;53.540;10.224;2023-06-19T01:34:54;21.80;1.00
5492;DHT22;2768;53.540;10.224;2023-06-19T01:40:52;21.80;1.00
5492;DHT22;2768;53.540;10.224;2023-06-19T01:46:47;21.90;1.00
5492;DHT22;2768;53.540;10.224;2023-06-19T01:52:41;21.80;1.00
5492;DHT22;2768;53.540;10.224;2023-06-19T01:58:38;21.70;1.00
5492;DHT22;2768;53.540;10.224;2023-06-19T02:04:31;21.70;1.00
5492;DHT22;2768;53.540;10.224;2023-06-19T02:10:24;21.70;1.00
5492;DHT22;2768;53.540;10.224;2023-06-19T02:16:19;21.80;1.00
5492;DHT22;2768;53.540;10.224;2023-06-19T02:22:13;21.70;1.00
5492;DHT22;2768;53.540;10.224;2023-06-19T02:28:06;21.60;1.00
5492;DHT22;2768;53.540;10.224;2023-06-19T02:34:01;21.60;1.00
5492;DHT22;2768;53.540;10.224;2023-06-19T02:39:55;21.70;1.00
5492;DHT22;2768;53.540;10.224;2023-06-19T02:45:49;21.60;1.00
5492;DHT22;2768;53.540;10.224;2023-06-19T02:51:44;21.60;1.00
5492;DHT22;2768;53.540;10.224;2023-06-19T02:57:37;21.60;1.00
5492;DHT22;2768;53.540;10.224;2023-06-19T03:03:31;21.50;1.00
5492;DHT22;2768;53.540;10.224;2023-06-19T03:09:27;21.50;1.00
5492;DHT22;2768;53.540;10.224;2023-06-19T03:15:21;21.50;1.00
5492;DHT22;2768;53.540;10.224;2023-06-19T03:21:16;21.50;1.00
5492;DHT22;2768;53.540;10.224;2023-06-19T03:27:13;21.50;1.00
5492;DHT22;2768;53.540;10.224;2023-06-19T03:33:07;21.50;1.00
5492;DHT22;2768;53.540;10.224;2023-06-19T03:39:05;21.30;1.00
5492;DHT22;2768;53.540;10.224;2023-06-19T03:45:00;21.30;1.00
5492;DHT22;2768;53.540;10.224;2023-06-19T03:50:54;21.30;1.00
5492;DHT22;2768;53.540;10.224;2023-06-19T03:56:47;21.30;1.00
5492;DHT22;2768;53.540;10.224;2023-06-19T04:02:44;21.30;1.00
5492;DHT22;2768;53.540;10.224;2023-06-19T04:08:39;21.30;1.00
5492;DHT22;2768;53.540;10.224;2023-06-19T04:14:36;21.20;1.00
5492;DHT22;2768;53.540;10.224;2023-06-19T04:20:31;21.20;1.00
5492;DHT22;2768;53.540;10.224;2023-06-19T04:26:25;21.30;1.00
5492;DHT22;2768;53.540;10.224;2023-06-19T04:32:18;21.10;1.00
5492;DHT22;2768;53.540;10.224;2023-06-19T04:38:13;21.20;1.00
5492;DHT22;2768;53.540;10.224;2023-06-19T04:44:07;21.20;1.00
5492;DHT22;2768;53.540;10.224;2023-06-19T04:50:00;21.30;1.00
5492;DHT22;2768;53.540;10.224;2023-06-19T04:55:55;21.30;1.00
5492;DHT22;2768;53.540;10.224;2023-06-19T05:01:52;21.20;1.00
5492;DHT22;2768;53.540;10.224;2023-06-19T05:07:46;21.30;1.00
5492;DHT22;2768;53.540;10.224;2023-06-19T05:13:41;21.30;1.00
5492;DHT22;2768;53.540;10.224;2023-06-19T05:19:34;21.20;1.00
5492;DHT22;2768;53.540;10.224;2023-06-19T05:25:27;21.20;1.00
5492;DHT22;2768;53.540;10.224;2023-06-19T05:31:23;21.20;1.00
5492;DHT22;2768;53.540;10.224;2023-06-19T05:37:16;21.30;1.00
5492;DHT22;2768;53.540;10.224;2023-06-19T05:43:09;21.30;1.00
5492;DHT22;2768;53.540;10.224;2023-06-19T05:49:04;21.30;1.00
5492;DHT22;2768;53.540;10.224;2023-06-19T05:54:57;21.20;1.00
5492;DHT22;2768;53.540;10.224;2023-06-19T06:00:51;21.20;1.00
5492;DHT22;2768;53.540;10.224;2023-06-19T06:06:51;21.10;1.00
5492;DHT22;2768;53.540;10.224;2023-06-19T06:12:45;21.10;1.00
5492;DHT22;2768;53.540;10.224;2023-06-19T06:18:39;21.20;1.00
5492;DHT22;2768;53.540;10.224;2023-06-19T06:24:33;21.20;1.00
5492;DHT22;2768;53.540;10.224;2023-06-19T06:30:27;21.20;1.00
5492;DHT22;2768;53.540;10.224;2023-06-19T06:36:20;21.40;1.00
5492;DHT22;2768;53.540;10.224;2023-06-19T06:42:28;21.50;1.00
5492;DHT22;2768;53.540;10.224;2023-06-19T06:48:21;21.50;1.00
5492;DHT22;2768;53.540;10.224;2023-06-19T06:54:14;21.60;1.00
5492;DHT22;2768;53.540;10.224;2023-06-19T07:00:10;21.70;1.00
5492;DHT22;2768;53.540;10.224;2023-06-19T07:06:06;21.80;1.00
5492;DHT22;2768;53.540;10.224;2023-06-19T07:11:59;21.70;1.00
5492;DHT22;2768;53.540;10.224;2023-06-19T07:17:55;21.60;1.00
5492;DHT22;2768;53.540;10.224;2023-06-19T07:23:49;21.60;1.00
5492;DHT22;2768;53.540;10.224;2023-06-19T07:29:44;21.60;1.00
5492;DHT22;2768;53.540;10.224;2023-06-19T07:35:38;21.60;1.00
5492;DHT22;2768;53.540;10.224;2023-06-19T07:41:32;21.60;1.00
5492;DHT22;2768;53.540;10.224;2023-06-19T07:47:26;21.70;1.00
5492;DHT22;2768;53.540;10.224;2023-06-19T07:53:22;21.70;1.00
5492;DHT22;2768;53.540;10.224;2023-06-19T07:59:16;21.70;1.00
5492;DHT22;2768;53.540;10.224;2023-06-19T08:05:10;21.70;1.00
5492;DHT22;2768;53.540;10.224;2023-06-19T08:11:05;21.70;1.00
5492;DHT22;2768;53.540;10.224;2023-06-19T08:16:58;21.90;1.00
5492;DHT22;2768;53.540;10.224;2023-06-19T08:22:51;22.10;1.00
5492;DHT22;2768;53.540;10.224;2023-06-19T08:28:46;22.20;1.00
5492;DHT22;2768;53.540;10.224;2023-06-19T08:34:39;22.40;1.00
5492;DHT22;2768;53.540;10.224;2023-06-19T08:40:33;22.50;1.00
5492;DHT22;2768;53.540;10.224;2023-06-19T08:46:28;22.60;1.00
5492;DHT22;2768;53.540;10.224;2023-06-19T08:52:22;22.80;1.00
5492;DHT22;2768;53.540;10.224;2023-06-19T08:58:21;23.00;1.00
5492;DHT22;2768;53.540;10.224;2023-06-19T09:04:17;23.30;1.00
5492;DHT22;2768;53.540;10.224;2023-06-19T09:10:15;23.60;1.00
5492;DHT22;2768;53.540;10.224;2023-06-19T09:16:11;23.80;1.00
5492;DHT22;2768;53.540;10.224;2023-06-19T09:22:07;23.90;1.00
5492;DHT22;2768;53.540;10.224;2023-06-19T09:28:01;24.10;1.00
5492;DHT22;2768;53.540;10.224;2023-06-19T09:33:54;24.20;1.00
5492;DHT22;2768;53.540;10.224;2023-06-19T09:39:52;24.40;1.00
5492;DHT22;2768;53.540;10.224;2023-06-19T09:45:48;24.50;1.00
5492;DHT22;2768;53.540;10.224;2023-06-19T09:51:43;24.70;1.00
5492;DHT22;2768;53.540;10.224;2023-06-19T09:57:38;24.70;1.00
5492;DHT22;2768;53.540;10.224;2023-06-19T10:03:33;24.70;1.00
5492;DHT22;2768;53.540;10.224;2023-06-19T10:09:32;24.80;1.00
5492;DHT22;2768;53.540;10.224;2023-06-19T10:15:28;25.00;1.00
5492;DHT22;2768;53.540;10.224;2023-06-19T10:21:22;25.10;1.00
5492;DHT22;2768;53.540;10.224;2023-06-19T10:27:20;25.00;1.00
5492;DHT22;2768;53.540;10.224;2023-06-19T10:33:16;25.10;1.00
5492;DHT22;2768;53.540;10.224;2023-06-19T10:39:09;25.30;1.00
5492;DHT22;2768;53.540;10.224;2023-06-19T10:45:03;25.50;1.00
5492;DHT22;2768;53.540;10.224;2023-06-19T10:50:59;25.50;1.00
5492;DHT22;2768;53.540;10.224;2023-06-19T10:56:52;25.60;1.00
5492;DHT22;2768;53.540;10.224;2023-06-19T11:02:46;25.80;1.00
5492;DHT22;2768;53.540;10.224;2023-06-19T11:08:41;26.10;1.00
5492;DHT22;2768;53.540;10.224;2023-06-19T11:14:35;26.30;1.00
5492;DHT22;2768;53.540;10.224;2023-06-19T11:20:43;26.80;1.00
5492;DHT22;2768;53.540;10.224;2023-06-19T11:26:39;26.90;1.00
5492;DHT22;2768;53.540;10.224;2023-06-19T11:32:37;27.10;1.00
5492;DHT22;2768;53.540;10.224;2023-06-19T11:38:36;27.40;1.00
5492;DHT22;2768;53.540;10.224;2023-06-19T11:44:31;27.50;1.00
5492;DHT22;2768;53.540;10.224;2023-06-19T11:50:27;27.50;1.00
5492;DHT22;2768;53.540;10.224;2023-06-19T11:56:22;27.10;1.00
5492;DHT22;2768;53.540;10.224;2023-06-19T12:02:17;27.10;1.00
5492;DHT22;2768;53.540;10.224;2023-06-19T12:08:10;27.10;1.00
5492;DHT22;2768;53.540;10.224;2023-06-19T12:14:03;27.50;1.00
5492;DHT22;2768;53.540;10.224;2023-06-19T12:19:58;27.50;1.00
5492;DHT22;2768;53.540;10.224;2023-06-19T12:25:51;27.30;1.00
5492;DHT22;2768;53.540;10.224;2023-06-19T12:31:44;27.20;1.00
5492;DHT22;2768;53.540;10.224;2023-06-19T12:37:39;26.90;1.00
5492;DHT22;2768;53.540;10.224;2023-06-19T12:43:32;26.70;1.00
5492;DHT22;2768;53.540;10.224;2023-06-19T12:49:26;26.80;1.00
5492;DHT22;2768;53.540;10.224;2023-06-19T12:55:22;27.10;1.00
5492;DHT22;2768;53.540;10.224;2023-06-19T13:01:15;27.40;1.00
5492;DHT22;2768;53.540;10.224;2023-06-19T13:07:10;27.60;1.00
5492;DHT22;2768;53.540;10.224;2023-06-19T13:13:05;27.50;1.00
5492;DHT22;2768;53.540;10.224;2023-06-19T13:18:58;27.60;1.00
5492;DHT22;2768;53.540;10.224;2023-06-19T13:24:52;27.60;1.00
5492;DHT22;2768;53.540;10.224;2023-06-19T13:30:46;28.00;1.00
5492;DHT22;2768;53.540;10.224;2023-06-19T13:36:39;27.90;1.00
5492;DHT22;2768;53.540;10.224;2023-06-19T13:42:33;27.90;1.00
5492;DHT22;2768;53.540;10.224;2023-06-19T13:48:28;28.00;1.00
5492;DHT22;2768;53.540;10.224;2023-06-19T13:54:22;28.30;1.00
5492;DHT22;2768;53.540;10.224;2023-06-19T14:00:15;28.10;1.00
5492;DHT22;2768;53.540;10.224;2023-06-19T14:06:10;28.20;1.00
5492;DHT22;2768;53.540;10.224;2023-06-19T14:12:04;28.40;1.00
5492;DHT22;2768;53.540;10.224;2023-06-19T14:17:58;28.60;1.00
5492;DHT22;2768;53.540;10.224;2023-06-19T14:23:53;29.40;1.00
5492;DHT22;2768;53.540;10.224;2023-06-19T14:29:46;29.40;1.00
5492;DHT22;2768;53.540;10.224;2023-06-19T14:35:39;28.50;1.00
5492;DHT22;2768;53.540;10.224;2023-06-19T14:41:33;28.20;1.00
5492;DHT22;2768;53.540;10.224;2023-06-19T14:47:27;27.70;1.00
5492;DHT22;2768;53.540;10.224;2023-06-19T14:53:20;27.60;1.00
5492;DHT22;2768;53.540;10.224;2023-06-19T14:59:15;27.60;1.00
5492;DHT22;2768;53.540;10.224;2023-06-19T15:05:09;27.60;1.00
5492;DHT22;2768;53.540;10.224;2023-06-19T15:11:02;27.30;1.00
5492;DHT22;2768;53.540;10.224;2023-06-19T15:16:57;27.20;1.00
5492;DHT22;2768;53.540;10.224;2023-06-19T15:22:51;26.90;1.00
5492;DHT22;2768;53.540;10.224;2023-06-19T15:28:44;26.90;1.00
5492;DHT22;2768;53.540;10.224;2023-06-19T15:34:40;26.50;1.00
5492;DHT22;2768;53.540;10.224;2023-06-19T15:40:33;26.20;1.00
5492;DHT22;2768;53.540;10.224;2023-06-19T15:46:27;26.10;1.00
5492;DHT22;2768;53.540;10.224;2023-06-19T15:52:22;26.00;1.00
5492;DHT22;2768;53.540;10.224;2023-06-19T15:58:15;26.00;1.00
5492;DHT22;2768;53.540;10.224;2023-06-19T16:04:08;26.00;1.00
5492;DHT22;2768;53.540;10.224;2023-06-19T16:10:03;26.00;1.00
5492;DHT22;2768;53.540;10.224;2023-06-19T16:15:57;25.90;1.00
5492;DHT22;2768;53.540;10.224;2023-06-19T16:21:50;25.90;1.00
5492;DHT22;2768;53.540;10.224;2023-06-19T16:27:45;26.00;1.00
5492;DHT22;2768;53.540;10.224;2023-06-19T16:33:38;26.00;1.00
5492;DHT22;2768;53.540;10.224;2023-06-19T16:39:31;25.90;1.00
5492;DHT22;2768;53.540;10.224;2023-06-19T16:45:26;25.90;1.00
5492;DHT22;2768;53.540;10.224;2023-06-19T16:51:19;25.80;1.00
5492;DHT22;2768;53.540;10.224;2023-06-19T16:57:13;25.60;1.00
5492;DHT22;2768;53.540;10.224;2023-06-19T17:03:07;25.60;1.00
5492;DHT22;2768;53.540;10.224;2023-06-19T17:09:01;25.70;1.00
5492;DHT22;2768;53.540;10.224;2023-06-19T17:14:54;25.60;1.00
5492;DHT22;2768;53.540;10.224;2023-06-19T17:20:49;25.70;1.00
5492;DHT22;2768;53.540;10.224;2023-06-19T17:26:42;25.60;1.00
5492;DHT22;2768;53.540;10.224;2023-06-19T17:32:36;25.60;1.00
5492;DHT22;2768;53.540;10.224;2023-06-19T17:38:31;25.60;1.00
5492;DHT22;2768;53.540;10.224;2023-06-19T17:44:24;25.60;1.00
5492;DHT22;2768;53.540;10.224;2023-06-19T17:50:21;25.60;1.00
5492;DHT22;2768;53.540;10.224;2023-06-19T17:56:16;25.50;1.00
5492;DHT22;2768;53.540;10.224;2023-06-19T18:02:09;25.50;1.00
5492;DHT22;2768;53.540;10.224;2023-06-19T18:08:03;25.50;1.00
5492;DHT22;2768;53.540;10.224;2023-06-19T18:13:57;25.50;1.00
5492;DHT22;2768;53.540;10.224;2023-06-19T18:19:51;25.50;1.00
5492;DHT22;2768;53.540;10.224;2023-06-19T18:25:46;25.50;1.00
5492;DHT22;2768;53.540;10.224;2023-06-19T18:31:41;25.30;1.00
5492;DHT22;2768;53.540;10.224;2023-06-19T18:37:34;25.20;1.00
5492;DHT22;2768;53.540;10.224;2023-06-19T18:43:29;25.10;1.00
5492;DHT22;2768;53.540;10.224;2023-06-19T18:49:27;25.00;1.00
5492;DHT22;2768;53.540;10.224;2023-06-19T18:55:23;24.80;1.00
5492;DHT22;2768;53.540;10.224;2023-06-19T19:01:16;24.70;1.00
5492;DHT22;2768;53.540;10.224;2023-06-19T19:07:11;24.60;1.00
5492;DHT22;2768;53.540;10.224;2023-06-19T19:13:04;24.50;1.00
5492;DHT22;2768;53.540;10.224;2023-06-19T19:18:58;24.40;1.00
5492;DHT22;2768;53.540;10.224;2023-06-19T19:24:53;24.30;1.00
5492;DHT22;2768;53.540;10.224;2023-06-19T19:30:46;24.20;2.30
5492;DHT22;2768;53.540;10.224;2023-06-19T19:36:40;24.10;3.10
5492;DHT22;2768;53.540;10.224;2023-06-19T19:42:35;23.90;3.90
5492;DHT22;2768;53.540;10.224;2023-06-19T19:48:28;23.80;4.50
5492;DHT22;2768;53.540;10.224;2023-06-19T19:54:21;23.70;3.20
5492;DHT22;2768;53.540;10.224;2023-06-19T20:00:16;23.60;2.60
5492;DHT22;2768;53.540;10.224;2023-06-19T20:06:10;23.50;1.30
5492;DHT22;2768;53.540;10.224;2023-06-19T20:12:04;23.50;2.00
5492;DHT22;2768;53.540;10.224;2023-06-19T20:18:13;23.40;4.80
5492;DHT22;2768;53.540;10.224;2023-06-19T20:24:07;23.40;9.50
5492;DHT22;2768;53.540;10.224;2023-06-19T20:30:00;23.40;10.20
5492;DHT22;2768;53.540;10.224;2023-06-19T20:35:55;23.30;16.30
5492;DHT22;2768;53.540;10.224;2023-06-19T20:41:53;23.30;16.30
5492;DHT22;2768;53.540;10.224;2023-06-19T20:47:46;23.30;16.30
5492;DHT22;2768;53.540;10.224;2023-06-19T20:53:41;23.20;25.40
5492;DHT22;2768;53.540;10.224;2023-06-19T20:59:34;23.40;21.00
5492;DHT22;2768;53.540;10.224;2023-06-19T21:05:28;23.00;26.20
5492;DHT22;2768;53.540;10.224;2023-06-19T21:11:23;22.90;33.70
5492;DHT22;2768;53.540;10.224;2023-06-19T21:17:16;22.60;36.60
5492;DHT22;2768;53.540;10.224;2023-06-19T21:23:10;22.40;49.90
5492;DHT22;2768;53.540;10.224;2023-06-19T21:29:05;22.30;56.80
5492;DHT22;2768;53.540;10.224;2023-06-19T21:34:58;22.20;64.00
5492;DHT22;2768;53.540;10.224;2023-06-19T21:40:52;22.10;69.70
5492;DHT22;2768;53.540;10.224;2023-06-19T21:46:46;22.00;82.40
5492;DHT22;2768;53.540;10.224;2023-06-19T21:52:41;21.90;88.10
5492;DHT22;2768;53.540;10.224;2023-06-19T21:58:34;21.80;83.50
5492;DHT22;2768;53.540;10.224;2023-06-19T22:04:29;21.70;78.50
5492;DHT22;2768;53.540;10.224;2023-06-19T22:10:22;21.90;73.70
5492;DHT22;2768;53.540;10.224;2023-06-19T22:16:17;22.00;69.60
5492;DHT22;2768;53.540;10.224;2023-06-19T22:22:11;22.00;61.00
5492;DHT22;2768;53.540;10.224;2023-06-19T22:28:05;22.00;67.40
5492;DHT22;2768;53.540;10.224;2023-06-19T22:33:58;22.00;59.10
5492;DHT22;2768;53.540;10.224;2023-06-19T22:39:53;21.70;69.30
5492;DHT22;2768;53.540;10.224;2023-06-19T22:45:46;21.50;69.10
5492;DHT22;2768;53.540;10.224;2023-06-19T22:51:40;21.50;72.20
5492;DHT22;2768;53.540;10.224;2023-06-19T22:57:36;21.40;80.10
5492;DHT22;2768;53.540;10.224;2023-06-19T23:03:29;21.50;76.50
5492;DHT22;2768;53.540;10.224;2023-06-19T23:09:23;21.30;84.30
5492;DHT22;2768;53.540;10.224;2023-06-19T23:15:23;21.40;80.80
5492;DHT22;2768;53.540;10.224;2023-06-19T23:21:16;21.30;79.10
5492;DHT22;2768;53.540;10.224;2023-06-19T23:27:10;21.20;83.60
5492;DHT22;2768;53.540;10.224;2023-06-19T23:33:05;21.20;86.10
5492;DHT22;2768;53.540;10.224;2023-06-19T23:38:58;21.50;80.00
5492;DHT22;2768;53.540;10.224;2023-06-19T23:44:53;21.30;74.30
5492;DHT22;2768;53.540;10.224;2023-06-19T23:50:48;21.10;85.70
5492;DHT22;2768;53.540;10.224;2023-06-19T23:56:41;20.90;90.50
